Terminal Aerodrome Forecast
Issued by NWS

Home | Current Version | Previous Version | Text Only | Print | Product List | Glossary On
Versions: 1 2 3 4 5 6 7 8 9 10 11 12 13 14 15 16 17 18 19 20 21 22 23 24 25 26 27 28 29 30 31 32
000
FTUS44 KHGX 271720
TAFSGR
TAF
KSGR 271720Z 2718/2818 07011KT P6SM OVC022
      TEMPO 2719/2720 SCT030 BKN100
     FM272000 06011KT P6SM SCT040 BKN100
     FM280300 05011KT P6SM BKN035 OVC080
     FM280900 06013KT P6SM BKN020 OVC070
     FM281600 06014KT P6SM SCT020 OVC070=

USA.gov is the U.S. government's official web portal to all federal, state and local government web resources and services.